sensor_id;sensor_type;location;lat;lon;timestamp;P1;durP1;ratioP1;P2;durP2;ratioP2
8540;SDS011;4308;51.294;6.590;2022-10-16T00:00:57;4.50;;;3.20;;
8540;SDS011;4308;51.294;6.590;2022-10-16T00:03:24;7.37;;;3.53;;
8540;SDS011;4308;51.294;6.590;2022-10-16T00:05:58;9.50;;;3.70;;
8540;SDS011;4308;51.294;6.590;2022-10-16T00:08:26;9.10;;;3.90;;
8540;SDS011;4308;51.294;6.590;2022-10-16T00:10:58;7.87;;;3.73;;
8540;SDS011;4308;51.294;6.590;2022-10-16T00:13:26;7.70;;;3.10;;
8540;SDS011;4308;51.294;6.590;2022-10-16T00:15:55;9.53;;;3.60;;
8540;SDS011;4308;51.294;6.590;2022-10-16T00:18:23;8.83;;;3.37;;
8540;SDS011;4308;51.294;6.590;2022-10-16T00:20:51;12.90;;;3.70;;
8540;SDS011;4308;51.294;6.590;2022-10-16T00:23:19;6.93;;;3.50;;
8540;SDS011;4308;51.294;6.590;2022-10-16T00:25:57;12.00;;;3.53;;
8540;SDS011;4308;51.294;6.590;2022-10-16T00:28:25;6.07;;;3.37;;
8540;SDS011;4308;51.294;6.590;2022-10-16T00:30:53;6.07;;;3.40;;
8540;SDS011;4308;51.294;6.590;2022-10-16T00:33:21;6.23;;;3.17;;
8540;SDS011;4308;51.294;6.590;2022-10-16T00:35:48;7.23;;;3.30;;
8540;SDS011;4308;51.294;6.590;2022-10-16T00:38:16;8.60;;;3.60;;
8540;SDS011;4308;51.294;6.590;2022-10-16T00:40:44;9.03;;;3.67;;
8540;SDS011;4308;51.294;6.590;2022-10-16T00:43:12;6.27;;;3.10;;
8540;SDS011;4308;51.294;6.590;2022-10-16T00:45:40;6.83;;;3.00;;
8540;SDS011;4308;51.294;6.590;2022-10-16T00:48:10;10.93;;;3.37;;
8540;SDS011;4308;51.294;6.590;2022-10-16T00:50:40;7.30;;;3.17;;
8540;SDS011;4308;51.294;6.590;2022-10-16T00:53:07;7.33;;;3.40;;
8540;SDS011;4308;51.294;6.590;2022-10-16T00:55:35;6.50;;;3.10;;
8540;SDS011;4308;51.294;6.590;2022-10-16T00:58:08;7.50;;;3.30;;
8540;SDS011;4308;51.294;6.590;2022-10-16T01:00:36;6.93;;;3.00;;
8540;SDS011;4308;51.294;6.590;2022-10-16T01:03:21;4.80;;;3.13;;
8540;SDS011;4308;51.294;6.590;2022-10-16T01:05:50;5.90;;;2.80;;
8540;SDS011;4308;51.294;6.590;2022-10-16T01:09:06;5.73;;;2.90;;
8540;SDS011;4308;51.294;6.590;2022-10-16T01:11:17;5.43;;;2.80;;
8540;SDS011;4308;51.294;6.590;2022-10-16T01:13:50;5.90;;;2.60;;
8540;SDS011;4308;51.294;6.590;2022-10-16T01:18:58;4.60;;;2.53;;
8540;SDS011;4308;51.294;6.590;2022-10-16T01:21:32;3.90;;;2.40;;
8540;SDS011;4308;51.294;6.590;2022-10-16T01:24:11;9.40;;;2.50;;
8540;SDS011;4308;51.294;6.590;2022-10-16T01:29:26;2.30;;;2.07;;
8540;SDS011;4308;51.294;6.590;2022-10-16T01:31:59;3.83;;;1.90;;
8540;SDS011;4308;51.294;6.590;2022-10-16T01:34:37;7.87;;;1.70;;
8540;SDS011;4308;51.294;6.590;2022-10-16T01:37:07;6.80;;;1.93;;
8540;SDS011;4308;51.294;6.590;2022-10-16T01:39:35;4.53;;;2.10;;
8540;SDS011;4308;51.294;6.590;2022-10-16T01:42:06;7.00;;;2.10;;
8540;SDS011;4308;51.294;6.590;2022-10-16T01:44:34;3.27;;;1.80;;
8540;SDS011;4308;51.294;6.590;2022-10-16T01:47:02;2.93;;;1.80;;
8540;SDS011;4308;51.294;6.590;2022-10-16T01:49:32;3.13;;;1.70;;
8540;SDS011;4308;51.294;6.590;2022-10-16T01:52:02;5.33;;;1.77;;
8540;SDS011;4308;51.294;6.590;2022-10-16T01:54:32;3.67;;;1.93;;
8540;SDS011;4308;51.294;6.590;2022-10-16T01:57:00;2.13;;;1.93;;
8540;SDS011;4308;51.294;6.590;2022-10-16T01:59:29;4.00;;;1.70;;
8540;SDS011;4308;51.294;6.590;2022-10-16T02:02:01;7.00;;;1.80;;
8540;SDS011;4308;51.294;6.590;2022-10-16T02:04:34;2.83;;;1.77;;
8540;SDS011;4308;51.294;6.590;2022-10-16T02:07:03;3.07;;;1.80;;
8540;SDS011;4308;51.294;6.590;2022-10-16T02:09:32;3.97;;;1.73;;
8540;SDS011;4308;51.294;6.590;2022-10-16T02:12:01;5.03;;;1.80;;
8540;SDS011;4308;51.294;6.590;2022-10-16T02:14:30;3.43;;;1.60;;
8540;SDS011;4308;51.294;6.590;2022-10-16T02:16:58;7.33;;;1.70;;
8540;SDS011;4308;51.294;6.590;2022-10-16T02:19:26;3.43;;;1.57;;
8540;SDS011;4308;51.294;6.590;2022-10-16T02:21:55;6.67;;;1.50;;
8540;SDS011;4308;51.294;6.590;2022-10-16T02:29:27;4.27;;;1.70;;
8540;SDS011;4308;51.294;6.590;2022-10-16T02:31:56;2.43;;;1.80;;
8540;SDS011;4308;51.294;6.590;2022-10-16T02:34:25;1.57;;;1.43;;
8540;SDS011;4308;51.294;6.590;2022-10-16T02:36:52;5.10;;;1.60;;
8540;SDS011;4308;51.294;6.590;2022-10-16T02:39:20;4.07;;;1.40;;
8540;SDS011;4308;51.294;6.590;2022-10-16T02:41:48;4.77;;;1.40;;
8540;SDS011;4308;51.294;6.590;2022-10-16T02:44:16;3.80;;;1.03;;
8540;SDS011;4308;51.294;6.590;2022-10-16T02:46:43;3.63;;;1.30;;
8540;SDS011;4308;51.294;6.590;2022-10-16T02:49:11;2.83;;;1.23;;
8540;SDS011;4308;51.294;6.590;2022-10-16T02:51:38;3.23;;;1.37;;
8540;SDS011;4308;51.294;6.590;2022-10-16T02:54:06;3.37;;;1.33;;
8540;SDS011;4308;51.294;6.590;2022-10-16T02:56:33;1.80;;;1.60;;
8540;SDS011;4308;51.294;6.590;2022-10-16T02:59:01;3.83;;;1.23;;
8540;SDS011;4308;51.294;6.590;2022-10-16T03:01:28;3.97;;;1.60;;
8540;SDS011;4308;51.294;6.590;2022-10-16T03:03:56;3.87;;;1.60;;
8540;SDS011;4308;51.294;6.590;2022-10-16T03:06:23;4.93;;;1.70;;
8540;SDS011;4308;51.294;6.590;2022-10-16T03:08:51;3.80;;;1.30;;
8540;SDS011;4308;51.294;6.590;2022-10-16T03:11:18;4.33;;;1.40;;
8540;SDS011;4308;51.294;6.590;2022-10-16T03:13:46;2.93;;;1.10;;
8540;SDS011;4308;51.294;6.590;2022-10-16T03:16:13;1.47;;;1.30;;
8540;SDS011;4308;51.294;6.590;2022-10-16T03:18:41;2.20;;;1.23;;
8540;SDS011;4308;51.294;6.590;2022-10-16T03:21:08;2.33;;;1.20;;
8540;SDS011;4308;51.294;6.590;2022-10-16T03:23:35;2.93;;;1.17;;
8540;SDS011;4308;51.294;6.590;2022-10-16T03:26:03;2.47;;;1.30;;
8540;SDS011;4308;51.294;6.590;2022-10-16T03:28:30;1.97;;;1.10;;
8540;SDS011;4308;51.294;6.590;2022-10-16T03:30:58;4.27;;;1.33;;
8540;SDS011;4308;51.294;6.590;2022-10-16T03:33:26;1.20;;;1.10;;
8540;SDS011;4308;51.294;6.590;2022-10-16T03:35:54;1.83;;;1.30;;
8540;SDS011;4308;51.294;6.590;2022-10-16T03:38:21;2.07;;;1.00;;
8540;SDS011;4308;51.294;6.590;2022-10-16T03:40:49;4.50;;;1.20;;
8540;SDS011;4308;51.294;6.590;2022-10-16T03:43:17;1.20;;;1.10;;
8540;SDS011;4308;51.294;6.590;2022-10-16T03:45:44;2.47;;;1.50;;
8540;SDS011;4308;51.294;6.590;2022-10-16T03:48:12;2.87;;;1.13;;
8540;SDS011;4308;51.294;6.590;2022-10-16T03:50:39;3.07;;;1.10;;
8540;SDS011;4308;51.294;6.590;2022-10-16T03:53:07;2.07;;;1.17;;
8540;SDS011;4308;51.294;6.590;2022-10-16T03:55:34;2.53;;;1.20;;
8540;SDS011;4308;51.294;6.590;2022-10-16T03:58:02;1.53;;;1.30;;
8540;SDS011;4308;51.294;6.590;2022-10-16T04:00:30;1.53;;;1.20;;
8540;SDS011;4308;51.294;6.590;2022-10-16T04:02:57;1.50;;;1.40;;
8540;SDS011;4308;51.294;6.590;2022-10-16T04:05:25;2.73;;;1.40;;
8540;SDS011;4308;51.294;6.590;2022-10-16T04:07:52;2.53;;;1.27;;
8540;SDS011;4308;51.294;6.590;2022-10-16T04:10:20;1.40;;;1.30;;
8540;SDS011;4308;51.294;6.590;2022-10-16T04:12:48;1.27;;;1.17;;
8540;SDS011;4308;51.294;6.590;2022-10-16T04:15:15;2.90;;;1.50;;
8540;SDS011;4308;51.294;6.590;2022-10-16T04:17:42;2.73;;;1.53;;
8540;SDS011;4308;51.294;6.590;2022-10-16T04:20:10;1.73;;;1.40;;
8540;SDS011;4308;51.294;6.590;2022-10-16T04:22:37;3.00;;;1.37;;
8540;SDS011;4308;51.294;6.590;2022-10-16T04:25:05;2.17;;;1.50;;
8540;SDS011;4308;51.294;6.590;2022-10-16T04:27:33;1.80;;;1.20;;
8540;SDS011;4308;51.294;6.590;2022-10-16T04:30:02;1.70;;;1.40;;
8540;SDS011;4308;51.294;6.590;2022-10-16T04:32:30;2.67;;;1.10;;
8540;SDS011;4308;51.294;6.590;2022-10-16T04:34:57;2.27;;;1.27;;
8540;SDS011;4308;51.294;6.590;2022-10-16T04:37:25;1.50;;;1.30;;
8540;SDS011;4308;51.294;6.590;2022-10-16T04:39:53;3.00;;;1.57;;
8540;SDS011;4308;51.294;6.590;2022-10-16T04:42:21;3.63;;;1.50;;
8540;SDS011;4308;51.294;6.590;2022-10-16T04:44:48;4.00;;;1.40;;
8540;SDS011;4308;51.294;6.590;2022-10-16T04:47:16;4.77;;;1.33;;
8540;SDS011;4308;51.294;6.590;2022-10-16T04:49:44;1.40;;;1.30;;
8540;SDS011;4308;51.294;6.590;2022-10-16T04:52:11;3.10;;;1.60;;
8540;SDS011;4308;51.294;6.590;2022-10-16T04:54:39;2.30;;;1.47;;
8540;SDS011;4308;51.294;6.590;2022-10-16T04:57:06;2.97;;;1.50;;
8540;SDS011;4308;51.294;6.590;2022-10-16T04:59:34;2.80;;;1.80;;
8540;SDS011;4308;51.294;6.590;2022-10-16T05:02:01;1.30;;;1.20;;
8540;SDS011;4308;51.294;6.590;2022-10-16T05:04:29;6.07;;;1.60;;
8540;SDS011;4308;51.294;6.590;2022-10-16T05:06:56;5.17;;;1.60;;
8540;SDS011;4308;51.294;6.590;2022-10-16T05:09:24;2.77;;;1.60;;
8540;SDS011;4308;51.294;6.590;2022-10-16T05:11:51;4.07;;;1.80;;
8540;SDS011;4308;51.294;6.590;2022-10-16T05:14:19;2.57;;;1.53;;
8540;SDS011;4308;51.294;6.590;2022-10-16T05:16:46;3.00;;;1.73;;
8540;SDS011;4308;51.294;6.590;2022-10-16T05:19:14;3.63;;;1.43;;
8540;SDS011;4308;51.294;6.590;2022-10-16T05:21:53;1.80;;;1.60;;
8540;SDS011;4308;51.294;6.590;2022-10-16T05:24:20;5.17;;;1.83;;
8540;SDS011;4308;51.294;6.590;2022-10-16T05:26:49;3.33;;;2.03;;
8540;SDS011;4308;51.294;6.590;2022-10-16T05:29:17;2.40;;;1.60;;
8540;SDS011;4308;51.294;6.590;2022-10-16T05:31:45;3.37;;;1.63;;
8540;SDS011;4308;51.294;6.590;2022-10-16T05:34:12;3.90;;;1.83;;
8540;SDS011;4308;51.294;6.590;2022-10-16T05:36:40;2.40;;;1.70;;
8540;SDS011;4308;51.294;6.590;2022-10-16T05:39:07;3.33;;;2.00;;
8540;SDS011;4308;51.294;6.590;2022-10-16T05:41:35;3.07;;;1.73;;
8540;SDS011;4308;51.294;6.590;2022-10-16T05:44:05;4.70;;;1.77;;
8540;SDS011;4308;51.294;6.590;2022-10-16T05:46:33;2.13;;;1.70;;
8540;SDS011;4308;51.294;6.590;2022-10-16T05:49:00;2.13;;;1.87;;
8540;SDS011;4308;51.294;6.590;2022-10-16T05:51:28;4.03;;;1.43;;
8540;SDS011;4308;51.294;6.590;2022-10-16T05:53:55;1.97;;;1.77;;
8540;SDS011;4308;51.294;6.590;2022-10-16T05:56:23;2.03;;;1.70;;
8540;SDS011;4308;51.294;6.590;2022-10-16T05:58:50;4.40;;;1.70;;
8540;SDS011;4308;51.294;6.590;2022-10-16T06:01:18;3.37;;;1.63;;
8540;SDS011;4308;51.294;6.590;2022-10-16T06:03:46;6.20;;;1.93;;
8540;SDS011;4308;51.294;6.590;2022-10-16T06:06:14;2.17;;;1.83;;
8540;SDS011;4308;51.294;6.590;2022-10-16T06:08:42;3.43;;;2.00;;
8540;SDS011;4308;51.294;6.590;2022-10-16T06:11:14;4.37;;;2.30;;
8540;SDS011;4308;51.294;6.590;2022-10-16T06:13:42;4.57;;;2.17;;
8540;SDS011;4308;51.294;6.590;2022-10-16T06:16:10;4.47;;;2.20;;
8540;SDS011;4308;51.294;6.590;2022-10-16T06:18:38;3.53;;;2.10;;
8540;SDS011;4308;51.294;6.590;2022-10-16T06:21:09;5.63;;;2.20;;
8540;SDS011;4308;51.294;6.590;2022-10-16T06:23:37;2.50;;;2.30;;
8540;SDS011;4308;51.294;6.590;2022-10-16T06:26:06;3.57;;;2.40;;
8540;SDS011;4308;51.294;6.590;2022-10-16T06:28:33;4.33;;;2.07;;
8540;SDS011;4308;51.294;6.590;2022-10-16T06:31:01;3.53;;;2.23;;
8540;SDS011;4308;51.294;6.590;2022-10-16T06:33:35;4.47;;;2.67;;
8540;SDS011;4308;51.294;6.590;2022-10-16T06:36:03;5.13;;;2.50;;
8540;SDS011;4308;51.294;6.590;2022-10-16T06:38:31;3.20;;;2.50;;
8540;SDS011;4308;51.294;6.590;2022-10-16T06:40:59;4.80;;;2.27;;
8540;SDS011;4308;51.294;6.590;2022-10-16T06:43:28;3.57;;;2.10;;
8540;SDS011;4308;51.294;6.590;2022-10-16T06:45:56;5.77;;;2.40;;
8540;SDS011;4308;51.294;6.590;2022-10-16T06:48:24;3.87;;;2.13;;
8540;SDS011;4308;51.294;6.590;2022-10-16T06:50:58;5.93;;;2.33;;
8540;SDS011;4308;51.294;6.590;2022-10-16T06:53:27;5.70;;;2.30;;
8540;SDS011;4308;51.294;6.590;2022-10-16T06:58:36;1.97;;;1.87;;
8540;SDS011;4308;51.294;6.590;2022-10-16T07:01:04;5.97;;;2.20;;
8540;SDS011;4308;51.294;6.590;2022-10-16T07:03:32;3.07;;;2.60;;
8540;SDS011;4308;51.294;6.590;2022-10-16T07:06:03;8.63;;;2.80;;
8540;SDS011;4308;51.294;6.590;2022-10-16T07:08:33;3.23;;;2.73;;
8540;SDS011;4308;51.294;6.590;2022-10-16T07:11:02;3.90;;;2.93;;
8540;SDS011;4308;51.294;6.590;2022-10-16T07:13:32;4.90;;;2.87;;
8540;SDS011;4308;51.294;6.590;2022-10-16T07:18:33;6.30;;;3.10;;
8540;SDS011;4308;51.294;6.590;2022-10-16T07:21:08;4.10;;;2.60;;
8540;SDS011;4308;51.294;6.590;2022-10-16T07:23:37;3.63;;;2.20;;
8540;SDS011;4308;51.294;6.590;2022-10-16T07:26:05;6.73;;;2.87;;
8540;SDS011;4308;51.294;6.590;2022-10-16T07:28:32;4.90;;;2.80;;
8540;SDS011;4308;51.294;6.590;2022-10-16T07:31:04;4.43;;;2.73;;
8540;SDS011;4308;51.294;6.590;2022-10-16T07:33:33;6.60;;;2.83;;
8540;SDS011;4308;51.294;6.590;2022-10-16T07:36:02;4.90;;;2.67;;
8540;SDS011;4308;51.294;6.590;2022-10-16T07:38:30;5.13;;;2.67;;
8540;SDS011;4308;51.294;6.590;2022-10-16T07:40:58;4.07;;;2.80;;
8540;SDS011;4308;51.294;6.590;2022-10-16T07:43:26;2.73;;;2.37;;
8540;SDS011;4308;51.294;6.590;2022-10-16T07:45:54;4.87;;;3.03;;
8540;SDS011;4308;51.294;6.590;2022-10-16T07:48:25;3.87;;;2.33;;
8540;SDS011;4308;51.294;6.590;2022-10-16T07:50:56;5.23;;;2.83;;
8540;SDS011;4308;51.294;6.590;2022-10-16T07:53:24;3.77;;;2.50;;
8540;SDS011;4308;51.294;6.590;2022-10-16T07:55:56;3.33;;;2.70;;
8540;SDS011;4308;51.294;6.590;2022-10-16T07:58:24;5.60;;;2.70;;
8540;SDS011;4308;51.294;6.590;2022-10-16T08:00:51;4.77;;;2.40;;
8540;SDS011;4308;51.294;6.590;2022-10-16T08:03:19;4.43;;;2.40;;
8540;SDS011;4308;51.294;6.590;2022-10-16T08:05:46;5.50;;;2.30;;
8540;SDS011;4308;51.294;6.590;2022-10-16T08:08:15;4.77;;;2.30;;
8540;SDS011;4308;51.294;6.590;2022-10-16T08:10:54;4.53;;;2.40;;
8540;SDS011;4308;51.294;6.590;2022-10-16T08:13:21;2.03;;;1.83;;
8540;SDS011;4308;51.294;6.590;2022-10-16T08:15:49;3.57;;;1.87;;
8540;SDS011;4308;51.294;6.590;2022-10-16T08:18:17;6.90;;;2.30;;
8540;SDS011;4308;51.294;6.590;2022-10-16T08:20:45;4.13;;;2.20;;
8540;SDS011;4308;51.294;6.590;2022-10-16T08:23:12;3.37;;;1.97;;
8540;SDS011;4308;51.294;6.590;2022-10-16T08:25:40;2.30;;;1.67;;
8540;SDS011;4308;51.294;6.590;2022-10-16T08:28:09;4.07;;;2.00;;
8540;SDS011;4308;51.294;6.590;2022-10-16T08:30:37;2.63;;;1.80;;
8540;SDS011;4308;51.294;6.590;2022-10-16T08:33:04;3.63;;;1.77;;
8540;SDS011;4308;51.294;6.590;2022-10-16T08:35:32;2.43;;;1.70;;
8540;SDS011;4308;51.294;6.590;2022-10-16T08:38:00;2.67;;;1.80;;
8540;SDS011;4308;51.294;6.590;2022-10-16T08:40:30;3.10;;;1.60;;
8540;SDS011;4308;51.294;6.590;2022-10-16T08:48:23;3.30;;;1.70;;
8540;SDS011;4308;51.294;6.590;2022-10-16T08:50:53;1.83;;;1.63;;
8540;SDS011;4308;51.294;6.590;2022-10-16T08:53:26;2.53;;;1.73;;
8540;SDS011;4308;51.294;6.590;2022-10-16T08:55:55;1.80;;;1.30;;
8540;SDS011;4308;51.294;6.590;2022-10-16T08:58:26;3.97;;;1.60;;
8540;SDS011;4308;51.294;6.590;2022-10-16T09:00:54;4.67;;;1.50;;
8540;SDS011;4308;51.294;6.590;2022-10-16T09:08:41;3.03;;;1.20;;
8540;SDS011;4308;51.294;6.590;2022-10-16T09:13:53;2.83;;;1.10;;
8540;SDS011;4308;51.294;6.590;2022-10-16T09:16:43;1.60;;;1.20;;
8540;SDS011;4308;51.294;6.590;2022-10-16T09:19:20;1.30;;;1.03;;
8540;SDS011;4308;51.294;6.590;2022-10-16T09:21:51;2.37;;;0.90;;
8540;SDS011;4308;51.294;6.590;2022-10-16T09:24:19;1.13;;;1.00;;
8540;SDS011;4308;51.294;6.590;2022-10-16T09:26:54;1.63;;;1.10;;
8540;SDS011;4308;51.294;6.590;2022-10-16T09:29:21;3.97;;;1.20;;
8540;SDS011;4308;51.294;6.590;2022-10-16T09:31:49;2.07;;;1.10;;
8540;SDS011;4308;51.294;6.590;2022-10-16T09:37:01;2.77;;;1.00;;
8540;SDS011;4308;51.294;6.590;2022-10-16T09:39:30;3.70;;;1.30;;
8540;SDS011;4308;51.294;6.590;2022-10-16T09:41:57;2.97;;;1.10;;
8540;SDS011;4308;51.294;6.590;2022-10-16T09:44:29;2.80;;;1.10;;
8540;SDS011;4308;51.294;6.590;2022-10-16T09:47:03;1.77;;;1.00;;
8540;SDS011;4308;51.294;6.590;2022-10-16T09:49:31;2.43;;;1.00;;
8540;SDS011;4308;51.294;6.590;2022-10-16T09:52:32;2.17;;;0.90;;
8540;SDS011;4308;51.294;6.590;2022-10-16T09:54:53;2.33;;;1.10;;
8540;SDS011;4308;51.294;6.590;2022-10-16T09:57:21;3.40;;;1.27;;
8540;SDS011;4308;51.294;6.590;2022-10-16T09:59:50;4.60;;;1.00;;
8540;SDS011;4308;51.294;6.590;2022-10-16T10:02:19;1.63;;;1.03;;
8540;SDS011;4308;51.294;6.590;2022-10-16T10:04:51;2.53;;;1.00;;
8540;SDS011;4308;51.294;6.590;2022-10-16T10:07:25;4.33;;;1.10;;
8540;SDS011;4308;51.294;6.590;2022-10-16T10:09:54;1.63;;;1.20;;
8540;SDS011;4308;51.294;6.590;2022-10-16T10:12:24;5.17;;;1.20;;
8540;SDS011;4308;51.294;6.590;2022-10-16T10:14:54;4.10;;;1.33;;
8540;SDS011;4308;51.294;6.590;2022-10-16T10:17:23;3.67;;;1.10;;
8540;SDS011;4308;51.294;6.590;2022-10-16T10:19:58;1.03;;;0.67;;
8540;SDS011;4308;51.294;6.590;2022-10-16T10:27:43;3.33;;;1.03;;
8540;SDS011;4308;51.294;6.590;2022-10-16T10:35:42;2.77;;;0.80;;
8540;SDS011;4308;51.294;6.590;2022-10-16T10:38:27;1.53;;;1.03;;
8540;SDS011;4308;51.294;6.590;2022-10-16T10:41:01;3.63;;;1.10;;
8540;SDS011;4308;51.294;6.590;2022-10-16T10:51:24;4.40;;;1.20;;
8540;SDS011;4308;51.294;6.590;2022-10-16T10:53:57;3.70;;;1.37;;
8540;SDS011;4308;51.294;6.590;2022-10-16T10:59:09;2.77;;;1.07;;
8540;SDS011;4308;51.294;6.590;2022-10-16T11:01:54;3.43;;;1.40;;
8540;SDS011;4308;51.294;6.590;2022-10-16T11:07:20;1.97;;;1.10;;
8540;SDS011;4308;51.294;6.590;2022-10-16T11:09:51;1.17;;;0.97;;
8540;SDS011;4308;51.294;6.590;2022-10-16T11:14:58;5.07;;;1.10;;
8540;SDS011;4308;51.294;6.590;2022-10-16T11:17:30;3.53;;;1.10;;
8540;SDS011;4308;51.294;6.590;2022-10-16T11:22:43;4.90;;;0.83;;
8540;SDS011;4308;51.294;6.590;2022-10-16T11:25:16;4.63;;;1.33;;
8540;SDS011;4308;51.294;6.590;2022-10-16T11:30:16;1.63;;;1.00;;
8540;SDS011;4308;51.294;6.590;2022-10-16T11:35:19;3.43;;;1.00;;
8540;SDS011;4308;51.294;6.590;2022-10-16T11:37:48;3.53;;;1.13;;
8540;SDS011;4308;51.294;6.590;2022-10-16T11:40:38;2.10;;;0.90;;
8540;SDS011;4308;51.294;6.590;2022-10-16T11:43:15;1.93;;;0.90;;
8540;SDS011;4308;51.294;6.590;2022-10-16T11:45:49;2.33;;;1.17;;
8540;SDS011;4308;51.294;6.590;2022-10-16T11:50:53;2.60;;;0.97;;
8540;SDS011;4308;51.294;6.590;2022-10-16T11:53:32;2.13;;;1.00;;
8540;SDS011;4308;51.294;6.590;2022-10-16T11:56:02;2.83;;;0.77;;
8540;SDS011;4308;51.294;6.590;2022-10-16T11:58:35;3.17;;;1.03;;
8540;SDS011;4308;51.294;6.590;2022-10-16T12:03:35;1.90;;;0.80;;
8540;SDS011;4308;51.294;6.590;2022-10-16T12:08:48;1.97;;;1.07;;
8540;SDS011;4308;51.294;6.590;2022-10-16T12:13:47;3.07;;;1.30;;
8540;SDS011;4308;51.294;6.590;2022-10-16T12:18:43;3.43;;;1.20;;
8540;SDS011;4308;51.294;6.590;2022-10-16T12:21:11;2.00;;;0.90;;
8540;SDS011;4308;51.294;6.590;2022-10-16T12:23:53;1.60;;;0.80;;
8540;SDS011;4308;51.294;6.590;2022-10-16T12:26:27;2.97;;;0.80;;
8540;SDS011;4308;51.294;6.590;2022-10-16T12:28:56;3.87;;;0.93;;
8540;SDS011;4308;51.294;6.590;2022-10-16T12:31:43;3.97;;;0.90;;
8540;SDS011;4308;51.294;6.590;2022-10-16T12:34:37;1.83;;;1.00;;
8540;SDS011;4308;51.294;6.590;2022-10-16T12:37:10;2.10;;;0.90;;
8540;SDS011;4308;51.294;6.590;2022-10-16T12:39:38;1.63;;;0.77;;
8540;SDS011;4308;51.294;6.590;2022-10-16T12:42:19;2.87;;;1.00;;
8540;SDS011;4308;51.294;6.590;2022-10-16T12:44:47;4.00;;;0.70;;
8540;SDS011;4308;51.294;6.590;2022-10-16T12:49:49;6.60;;;1.13;;
8540;SDS011;4308;51.294;6.590;2022-10-16T12:54:55;3.87;;;0.90;;
8540;SDS011;4308;51.294;6.590;2022-10-16T13:00:19;1.77;;;0.90;;
8540;SDS011;4308;51.294;6.590;2022-10-16T13:16:04;2.37;;;1.23;;
8540;SDS011;4308;51.294;6.590;2022-10-16T13:26:34;7.33;;;0.80;;
8540;SDS011;4308;51.294;6.590;2022-10-16T13:29:06;2.30;;;0.80;;
8540;SDS011;4308;51.294;6.590;2022-10-16T13:31:33;2.57;;;0.70;;
8540;SDS011;4308;51.294;6.590;2022-10-16T13:34:01;1.13;;;0.70;;
8540;SDS011;4308;51.294;6.590;2022-10-16T13:36:30;3.00;;;0.87;;
8540;SDS011;4308;51.294;6.590;2022-10-16T13:41:28;2.90;;;1.10;;
8540;SDS011;4308;51.294;6.590;2022-10-16T13:43:55;2.93;;;0.87;;
8540;SDS011;4308;51.294;6.590;2022-10-16T13:46:24;3.27;;;0.73;;
8540;SDS011;4308;51.294;6.590;2022-10-16T13:51:26;2.77;;;0.80;;
8540;SDS011;4308;51.294;6.590;2022-10-16T13:53:54;1.10;;;0.77;;
8540;SDS011;4308;51.294;6.590;2022-10-16T13:56:23;1.90;;;0.93;;
8540;SDS011;4308;51.294;6.590;2022-10-16T13:59:02;1.83;;;0.90;;
8540;SDS011;4308;51.294;6.590;2022-10-16T14:01:48;2.50;;;1.00;;
8540;SDS011;4308;51.294;6.590;2022-10-16T14:04:16;4.90;;;1.00;;
8540;SDS011;4308;51.294;6.590;2022-10-16T14:06:45;2.83;;;1.20;;
8540;SDS011;4308;51.294;6.590;2022-10-16T14:11:50;3.80;;;1.40;;
8540;SDS011;4308;51.294;6.590;2022-10-16T14:14:18;5.47;;;1.43;;
8540;SDS011;4308;51.294;6.590;2022-10-16T14:16:46;4.80;;;0.80;;
8540;SDS011;4308;51.294;6.590;2022-10-16T14:19:27;4.37;;;1.00;;
8540;SDS011;4308;51.294;6.590;2022-10-16T14:21:55;1.90;;;1.00;;
8540;SDS011;4308;51.294;6.590;2022-10-16T14:24:27;1.77;;;0.90;;
8540;SDS011;4308;51.294;6.590;2022-10-16T14:26:54;2.73;;;0.70;;
8540;SDS011;4308;51.294;6.590;2022-10-16T14:29:22;2.93;;;0.80;;
8540;SDS011;4308;51.294;6.590;2022-10-16T14:31:54;2.40;;;1.00;;
8540;SDS011;4308;51.294;6.590;2022-10-16T14:34:23;6.37;;;0.90;;
8540;SDS011;4308;51.294;6.590;2022-10-16T14:36:50;3.17;;;1.00;;
8540;SDS011;4308;51.294;6.590;2022-10-16T14:39:19;3.33;;;0.80;;
8540;SDS011;4308;51.294;6.590;2022-10-16T14:41:48;3.23;;;1.10;;
8540;SDS011;4308;51.294;6.590;2022-10-16T14:44:17;1.67;;;0.80;;
8540;SDS011;4308;51.294;6.590;2022-10-16T14:46:45;3.63;;;0.90;;
8540;SDS011;4308;51.294;6.590;2022-10-16T14:49:15;1.57;;;0.90;;
8540;SDS011;4308;51.294;6.590;2022-10-16T14:51:43;2.57;;;0.70;;
8540;SDS011;4308;51.294;6.590;2022-10-16T14:54:14;3.33;;;0.90;;
8540;SDS011;4308;51.294;6.590;2022-10-16T14:59:13;2.43;;;0.90;;
8540;SDS011;4308;51.294;6.590;2022-10-16T15:01:42;2.03;;;0.90;;
8540;SDS011;4308;51.294;6.590;2022-10-16T15:04:10;2.43;;;0.73;;
8540;SDS011;4308;51.294;6.590;2022-10-16T15:06:39;3.23;;;0.93;;
8540;SDS011;4308;51.294;6.590;2022-10-16T15:09:06;1.67;;;0.90;;
8540;SDS011;4308;51.294;6.590;2022-10-16T15:11:34;3.03;;;1.13;;
8540;SDS011;4308;51.294;6.590;2022-10-16T15:14:02;2.30;;;0.90;;
8540;SDS011;4308;51.294;6.590;2022-10-16T15:16:29;4.27;;;0.97;;
8540;SDS011;4308;51.294;6.590;2022-10-16T15:18:57;2.50;;;0.90;;
8540;SDS011;4308;51.294;6.590;2022-10-16T15:21:26;2.13;;;1.00;;
8540;SDS011;4308;51.294;6.590;2022-10-16T15:23:54;1.00;;;0.73;;
8540;SDS011;4308;51.294;6.590;2022-10-16T15:26:22;1.60;;;0.80;;
8540;SDS011;4308;51.294;6.590;2022-10-16T15:28:50;1.03;;;0.80;;
8540;SDS011;4308;51.294;6.590;2022-10-16T15:31:17;4.07;;;1.30;;
8540;SDS011;4308;51.294;6.590;2022-10-16T15:33:45;2.10;;;1.40;;
8540;SDS011;4308;51.294;6.590;2022-10-16T15:36:13;2.67;;;1.53;;
8540;SDS011;4308;51.294;6.590;2022-10-16T15:38:40;2.20;;;1.30;;
8540;SDS011;4308;51.294;6.590;2022-10-16T15:41:08;5.20;;;1.27;;
8540;SDS011;4308;51.294;6.590;2022-10-16T15:43:35;2.07;;;0.97;;
8540;SDS011;4308;51.294;6.590;2022-10-16T15:46:05;2.50;;;1.20;;
8540;SDS011;4308;51.294;6.590;2022-10-16T15:48:33;2.30;;;1.83;;
8540;SDS011;4308;51.294;6.590;2022-10-16T15:51:01;3.17;;;2.07;;
8540;SDS011;4308;51.294;6.590;2022-10-16T15:53:32;3.43;;;1.40;;
8540;SDS011;4308;51.294;6.590;2022-10-16T15:56:05;3.77;;;1.50;;
8540;SDS011;4308;51.294;6.590;2022-10-16T15:58:33;4.03;;;1.80;;
8540;SDS011;4308;51.294;6.590;2022-10-16T16:01:01;4.37;;;1.50;;
8540;SDS011;4308;51.294;6.590;2022-10-16T16:03:29;3.77;;;1.10;;
8540;SDS011;4308;51.294;6.590;2022-10-16T16:05:57;2.70;;;1.20;;
8540;SDS011;4308;51.294;6.590;2022-10-16T16:08:25;1.30;;;1.10;;
8540;SDS011;4308;51.294;6.590;2022-10-16T16:11:03;2.73;;;1.20;;
8540;SDS011;4308;51.294;6.590;2022-10-16T16:13:31;2.57;;;1.13;;
8540;SDS011;4308;51.294;6.590;2022-10-16T16:15:59;2.37;;;1.23;;
8540;SDS011;4308;51.294;6.590;2022-10-16T16:18:26;4.07;;;1.20;;
8540;SDS011;4308;51.294;6.590;2022-10-16T16:20:54;4.47;;;1.40;;
8540;SDS011;4308;51.294;6.590;2022-10-16T16:23:24;3.77;;;1.60;;
8540;SDS011;4308;51.294;6.590;2022-10-16T16:26:31;3.40;;;2.10;;
8540;SDS011;4308;51.294;6.590;2022-10-16T16:28:59;4.47;;;3.10;;
8540;SDS011;4308;51.294;6.590;2022-10-16T16:31:27;13.07;;;9.00;;
8540;SDS011;4308;51.294;6.590;2022-10-16T16:33:55;8.97;;;6.67;;
8540;SDS011;4308;51.294;6.590;2022-10-16T16:36:23;6.20;;;4.73;;
8540;SDS011;4308;51.294;6.590;2022-10-16T16:38:51;5.70;;;2.70;;
8540;SDS011;4308;51.294;6.590;2022-10-16T16:41:25;5.33;;;2.40;;
8540;SDS011;4308;51.294;6.590;2022-10-16T16:43:54;5.03;;;2.87;;
8540;SDS011;4308;51.294;6.590;2022-10-16T16:46:22;5.53;;;2.40;;
8540;SDS011;4308;51.294;6.590;2022-10-16T16:48:49;6.70;;;3.27;;
8540;SDS011;4308;51.294;6.590;2022-10-16T16:51:17;6.27;;;2.57;;
8540;SDS011;4308;51.294;6.590;2022-10-16T16:53:46;5.33;;;2.43;;
8540;SDS011;4308;51.294;6.590;2022-10-16T16:56:14;4.90;;;2.30;;
8540;SDS011;4308;51.294;6.590;2022-10-16T16:58:43;4.90;;;2.50;;
8540;SDS011;4308;51.294;6.590;2022-10-16T17:01:12;5.90;;;2.10;;
8540;SDS011;4308;51.294;6.590;2022-10-16T17:03:48;4.70;;;2.20;;
8540;SDS011;4308;51.294;6.590;2022-10-16T17:06:17;4.67;;;2.07;;
8540;SDS011;4308;51.294;6.590;2022-10-16T17:08:47;5.10;;;2.30;;
8540;SDS011;4308;51.294;6.590;2022-10-16T17:11:16;2.97;;;1.87;;
8540;SDS011;4308;51.294;6.590;2022-10-16T17:13:43;3.73;;;1.70;;
8540;SDS011;4308;51.294;6.590;2022-10-16T17:16:11;3.70;;;2.50;;
8540;SDS011;4308;51.294;6.590;2022-10-16T17:18:39;5.37;;;2.40;;
8540;SDS011;4308;51.294;6.590;2022-10-16T17:21:07;5.07;;;2.53;;
8540;SDS011;4308;51.294;6.590;2022-10-16T17:23:35;6.83;;;2.60;;
8540;SDS011;4308;51.294;6.590;2022-10-16T17:26:10;7.33;;;2.77;;
8540;SDS011;4308;51.294;6.590;2022-10-16T17:28:39;5.97;;;3.33;;